sensor_id;sensor_type;location;lat;lon;timestamp;P1;P2;P0
26185;PMS7003;20067;48.764;9.176;2022-09-09T00:06:21;6.50;6.50;2.00
26185;PMS7003;20067;48.764;9.176;2022-09-09T00:11:54;7.75;6.00;1.25
26185;PMS7003;20067;48.764;9.176;2022-09-09T00:16:58;6.00;6.00;2.00
26185;PMS7003;20067;48.764;9.176;2022-09-09T00:22:40;6.00;6.00;2.00
26185;PMS7003;20067;48.764;9.176;2022-09-09T00:25:16;8.00;8.00;2.25
26185;PMS7003;20067;48.764;9.176;2022-09-09T00:28:09;6.50;6.50;1.00
26185;PMS7003;20067;48.764;9.176;2022-09-09T00:30:42;6.00;6.00;2.00
26185;PMS7003;20067;48.764;9.176;2022-09-09T00:33:11;6.00;6.00;2.00
26185;PMS7003;20067;48.764;9.176;2022-09-09T00:35:54;6.00;6.00;1.75
26185;PMS7003;20067;48.764;9.176;2022-09-09T00:49:37;5.50;5.50;2.00
26185;PMS7003;20067;48.764;9.176;2022-09-09T00:52:30;7.00;7.00;2.00
26185;PMS7003;20067;48.764;9.176;2022-09-09T00:57:38;7.00;5.75;1.75
26185;PMS7003;20067;48.764;9.176;2022-09-09T01:00:17;6.00;6.00;2.25
26185;PMS7003;20067;48.764;9.176;2022-09-09T01:05:46;6.00;6.00;2.00
26185;PMS7003;20067;48.764;9.176;2022-09-09T01:14:11;6.00;6.00;2.00
26185;PMS7003;20067;48.764;9.176;2022-09-09T01:16:56;8.00;8.00;2.00
26185;PMS7003;20067;48.764;9.176;2022-09-09T01:19:40;9.25;9.25;2.50
26185;PMS7003;20067;48.764;9.176;2022-09-09T01:25:15;6.00;6.00;1.00
26185;PMS7003;20067;48.764;9.176;2022-09-09T01:27:51;6.00;6.00;1.00
26185;PMS7003;20067;48.764;9.176;2022-09-09T01:30:20;7.00;7.00;1.00
26185;PMS7003;20067;48.764;9.176;2022-09-09T01:32:49;8.50;8.50;2.00
26185;PMS7003;20067;48.764;9.176;2022-09-09T01:38:11;5.25;5.00;1.00
26185;PMS7003;20067;48.764;9.176;2022-09-09T01:40:38;5.25;5.25;1.00
26185;PMS7003;20067;48.764;9.176;2022-09-09T01:43:04;6.00;6.00;2.00
26185;PMS7003;20067;48.764;9.176;2022-09-09T01:45:31;5.50;5.50;1.50
26185;PMS7003;20067;48.764;9.176;2022-09-09T01:47:57;5.75;5.75;1.00
26185;PMS7003;20067;48.764;9.176;2022-09-09T01:50:24;6.00;6.00;1.00
26185;PMS7003;20067;48.764;9.176;2022-09-09T01:52:51;9.00;8.50;1.25
26185;PMS7003;20067;48.764;9.176;2022-09-09T01:55:22;8.00;8.00;1.00
26185;PMS7003;20067;48.764;9.176;2022-09-09T02:00:51;8.00;8.00;2.00
26185;PMS7003;20067;48.764;9.176;2022-09-09T02:03:37;8.50;8.50;2.00
26185;PMS7003;20067;48.764;9.176;2022-09-09T02:08:36;5.75;5.75;1.00
26185;PMS7003;20067;48.764;9.176;2022-09-09T02:11:20;9.50;9.50;3.00
26185;PMS7003;20067;48.764;9.176;2022-09-09T02:13:48;6.00;6.00;1.00
26185;PMS7003;20067;48.764;9.176;2022-09-09T02:16:19;7.75;6.00;1.00
26185;PMS7003;20067;48.764;9.176;2022-09-09T02:19:06;7.50;6.00;1.00
26185;PMS7003;20067;48.764;9.176;2022-09-09T02:21:33;6.00;5.00;1.75
26185;PMS7003;20067;48.764;9.176;2022-09-09T02:24:02;5.75;5.75;1.00
26185;PMS7003;20067;48.764;9.176;2022-09-09T02:26:33;5.25;5.25;1.00
26185;PMS7003;20067;48.764;9.176;2022-09-09T02:29:05;8.50;5.25;1.75
26185;PMS7003;20067;48.764;9.176;2022-09-09T02:31:36;6.25;5.00;2.00
26185;PMS7003;20067;48.764;9.176;2022-09-09T02:34:03;6.75;5.25;1.00
26185;PMS7003;20067;48.764;9.176;2022-09-09T02:36:33;6.00;6.00;2.00
26185;PMS7003;20067;48.764;9.176;2022-09-09T02:39:00;8.75;8.75;2.00
26185;PMS7003;20067;48.764;9.176;2022-09-09T02:41:28;8.00;6.00;2.00
26185;PMS7003;20067;48.764;9.176;2022-09-09T02:44:00;8.50;8.25;2.00
26185;PMS7003;20067;48.764;9.176;2022-09-09T02:46:36;5.50;5.00;0.50
26185;PMS7003;20067;48.764;9.176;2022-09-09T02:52:06;5.00;5.00;2.00
26185;PMS7003;20067;48.764;9.176;2022-09-09T02:54:34;6.00;6.00;2.00
26185;PMS7003;20067;48.764;9.176;2022-09-09T02:57:24;5.75;5.75;1.00
26185;PMS7003;20067;48.764;9.176;2022-09-09T02:59:53;5.00;5.00;1.00
26185;PMS7003;20067;48.764;9.176;2022-09-09T03:02:21;5.00;5.00;2.00
26185;PMS7003;20067;48.764;9.176;2022-09-09T03:04:47;5.00;5.00;1.00
26185;PMS7003;20067;48.764;9.176;2022-09-09T03:07:16;5.25;5.25;1.00
26185;PMS7003;20067;48.764;9.176;2022-09-09T03:09:43;5.00;5.00;1.00
26185;PMS7003;20067;48.764;9.176;2022-09-09T03:12:09;4.75;4.75;1.00
26185;PMS7003;20067;48.764;9.176;2022-09-09T03:14:36;5.25;5.25;1.00
26185;PMS7003;20067;48.764;9.176;2022-09-09T03:17:03;4.50;4.50;1.00
26185;PMS7003;20067;48.764;9.176;2022-09-09T03:19:29;8.00;6.25;2.00
26185;PMS7003;20067;48.764;9.176;2022-09-09T03:21:56;5.25;5.25;1.00
26185;PMS7003;20067;48.764;9.176;2022-09-09T03:24:22;6.00;6.00;1.00
26185;PMS7003;20067;48.764;9.176;2022-09-09T03:26:48;7.25;6.00;1.00
26185;PMS7003;20067;48.764;9.176;2022-09-09T03:29:15;5.25;5.25;1.00
26185;PMS7003;20067;48.764;9.176;2022-09-09T03:31:42;8.00;8.00;2.00
26185;PMS7003;20067;48.764;9.176;2022-09-09T03:34:08;6.00;6.00;1.00
26185;PMS7003;20067;48.764;9.176;2022-09-09T03:36:34;6.00;6.00;1.50
26185;PMS7003;20067;48.764;9.176;2022-09-09T03:39:00;5.50;5.25;1.00
26185;PMS7003;20067;48.764;9.176;2022-09-09T03:41:27;5.75;5.75;1.00
26185;PMS7003;20067;48.764;9.176;2022-09-09T03:43:54;5.50;5.50;0.75
26185;PMS7003;20067;48.764;9.176;2022-09-09T03:46:21;5.00;5.00;1.00
26185;PMS7003;20067;48.764;9.176;2022-09-09T03:48:48;5.00;5.00;1.00
26185;PMS7003;20067;48.764;9.176;2022-09-09T03:51:14;5.00;5.00;2.00
26185;PMS7003;20067;48.764;9.176;2022-09-09T03:53:40;5.00;5.00;2.00
26185;PMS7003;20067;48.764;9.176;2022-09-09T03:56:07;5.00;5.00;1.00
26185;PMS7003;20067;48.764;9.176;2022-09-09T03:58:33;8.25;7.00;2.00
26185;PMS7003;20067;48.764;9.176;2022-09-09T04:01:03;6.00;6.00;2.00
26185;PMS7003;20067;48.764;9.176;2022-09-09T04:03:40;7.50;7.50;2.00
26185;PMS7003;20067;48.764;9.176;2022-09-09T04:06:06;4.25;4.25;0.50
26185;PMS7003;20067;48.764;9.176;2022-09-09T04:08:34;5.75;5.75;1.00
26185;PMS7003;20067;48.764;9.176;2022-09-09T04:11:01;6.00;6.00;4.00
26185;PMS7003;20067;48.764;9.176;2022-09-09T04:13:31;6.00;6.00;1.75
26185;PMS7003;20067;48.764;9.176;2022-09-09T04:16:02;8.75;8.75;2.00
26185;PMS7003;20067;48.764;9.176;2022-09-09T04:18:28;6.00;6.00;1.00
26185;PMS7003;20067;48.764;9.176;2022-09-09T04:20:54;8.00;6.00;1.00
26185;PMS7003;20067;48.764;9.176;2022-09-09T04:23:24;7.00;6.50;1.00
26185;PMS7003;20067;48.764;9.176;2022-09-09T04:25:51;9.25;9.00;1.00
26185;PMS7003;20067;48.764;9.176;2022-09-09T04:28:19;5.75;5.25;1.00
26185;PMS7003;20067;48.764;9.176;2022-09-09T04:30:47;6.00;6.00;2.00
26185;PMS7003;20067;48.764;9.176;2022-09-09T04:33:13;8.25;8.00;2.00
26185;PMS7003;20067;48.764;9.176;2022-09-09T04:35:44;8.75;6.00;2.00
26185;PMS7003;20067;48.764;9.176;2022-09-09T04:38:11;5.75;5.25;1.00
26185;PMS7003;20067;48.764;9.176;2022-09-09T04:40:36;6.00;6.00;2.00
26185;PMS7003;20067;48.764;9.176;2022-09-09T04:43:08;9.25;7.50;2.00
26185;PMS7003;20067;48.764;9.176;2022-09-09T04:45:34;6.00;6.00;1.00
26185;PMS7003;20067;48.764;9.176;2022-09-09T04:48:00;8.50;7.50;2.50
26185;PMS7003;20067;48.764;9.176;2022-09-09T04:50:27;7.00;7.00;2.00
26185;PMS7003;20067;48.764;9.176;2022-09-09T04:52:53;8.50;6.00;4.00
26185;PMS7003;20067;48.764;9.176;2022-09-09T04:55:19;6.50;5.25;2.00
26185;PMS7003;20067;48.764;9.176;2022-09-09T04:57:45;5.75;5.75;2.25
26185;PMS7003;20067;48.764;9.176;2022-09-09T05:00:11;8.00;6.00;2.00
26185;PMS7003;20067;48.764;9.176;2022-09-09T05:02:38;7.50;7.50;4.50
26185;PMS7003;20067;48.764;9.176;2022-09-09T05:05:04;6.50;6.50;4.00
26185;PMS7003;20067;48.764;9.176;2022-09-09T05:07:31;7.50;7.50;2.00
26185;PMS7003;20067;48.764;9.176;2022-09-09T05:09:57;7.50;5.75;2.00
26185;PMS7003;20067;48.764;9.176;2022-09-09T05:12:23;8.75;7.50;2.00
26185;PMS7003;20067;48.764;9.176;2022-09-09T05:14:52;5.75;5.75;2.00
26185;PMS7003;20067;48.764;9.176;2022-09-09T05:17:18;6.00;6.00;2.00
26185;PMS7003;20067;48.764;9.176;2022-09-09T05:19:43;7.50;7.50;2.00
26185;PMS7003;20067;48.764;9.176;2022-09-09T05:22:09;6.00;6.00;3.00
26185;PMS7003;20067;48.764;9.176;2022-09-09T05:24:37;5.00;5.00;2.00
26185;PMS7003;20067;48.764;9.176;2022-09-09T05:27:03;5.75;5.50;1.75
26185;PMS7003;20067;48.764;9.176;2022-09-09T05:29:30;5.00;5.00;2.00
26185;PMS7003;20067;48.764;9.176;2022-09-09T05:31:58;6.00;6.00;2.00
26185;PMS7003;20067;48.764;9.176;2022-09-09T05:34:24;6.00;6.00;3.75
26185;PMS7003;20067;48.764;9.176;2022-09-09T05:36:50;6.00;6.00;2.00
26185;PMS7003;20067;48.764;9.176;2022-09-09T05:39:17;6.00;6.00;2.50
26185;PMS7003;20067;48.764;9.176;2022-09-09T05:41:43;7.50;6.00;3.50
26185;PMS7003;20067;48.764;9.176;2022-09-09T05:44:09;5.25;5.25;2.00
26185;PMS7003;20067;48.764;9.176;2022-09-09T05:46:35;5.50;5.00;2.00
26185;PMS7003;20067;48.764;9.176;2022-09-09T05:49:01;6.00;6.00;2.00
26185;PMS7003;20067;48.764;9.176;2022-09-09T05:51:28;6.00;6.00;2.00
26185;PMS7003;20067;48.764;9.176;2022-09-09T05:53:55;5.50;5.50;2.00
26185;PMS7003;20067;48.764;9.176;2022-09-09T05:56:24;5.00;5.00;2.00
26185;PMS7003;20067;48.764;9.176;2022-09-09T05:58:51;6.00;6.00;3.75
26185;PMS7003;20067;48.764;9.176;2022-09-09T06:01:22;6.50;5.50;2.00
26185;PMS7003;20067;48.764;9.176;2022-09-09T06:03:48;6.50;6.00;2.00
26185;PMS7003;20067;48.764;9.176;2022-09-09T06:06:19;9.50;6.00;2.00
26185;PMS7003;20067;48.764;9.176;2022-09-09T06:08:47;5.00;5.00;1.50
26185;PMS7003;20067;48.764;9.176;2022-09-09T06:11:19;8.00;8.00;2.50
26185;PMS7003;20067;48.764;9.176;2022-09-09T06:13:47;8.75;6.00;2.00
26185;PMS7003;20067;48.764;9.176;2022-09-09T06:16:17;5.25;5.25;2.00
26185;PMS7003;20067;48.764;9.176;2022-09-09T06:18:43;5.75;5.75;1.75
26185;PMS7003;20067;48.764;9.176;2022-09-09T06:24:05;8.00;8.00;2.00
26185;PMS7003;20067;48.764;9.176;2022-09-09T06:26:33;9.00;8.25;1.25
26185;PMS7003;20067;48.764;9.176;2022-09-09T06:29:01;8.00;7.50;1.50
26185;PMS7003;20067;48.764;9.176;2022-09-09T06:31:29;8.00;8.00;2.00
26185;PMS7003;20067;48.764;9.176;2022-09-09T06:33:56;9.25;8.50;4.00
26185;PMS7003;20067;48.764;9.176;2022-09-09T06:36:24;8.00;8.00;2.00
26185;PMS7003;20067;48.764;9.176;2022-09-09T06:38:51;8.00;8.00;4.00
26185;PMS7003;20067;48.764;9.176;2022-09-09T06:41:18;7.50;7.50;2.00
26185;PMS7003;20067;48.764;9.176;2022-09-09T06:43:45;8.00;8.00;2.00
26185;PMS7003;20067;48.764;9.176;2022-09-09T06:46:16;7.50;7.50;2.00
26185;PMS7003;20067;48.764;9.176;2022-09-09T06:48:46;6.00;5.50;1.50
26185;PMS7003;20067;48.764;9.176;2022-09-09T06:51:19;6.00;6.00;2.00
26185;PMS7003;20067;48.764;9.176;2022-09-09T06:53:52;8.00;8.00;2.00
26185;PMS7003;20067;48.764;9.176;2022-09-09T06:58:50;8.00;7.75;2.25
26185;PMS7003;20067;48.764;9.176;2022-09-09T07:01:17;8.25;6.00;3.75
26185;PMS7003;20067;48.764;9.176;2022-09-09T07:03:45;6.00;6.00;2.00
26185;PMS7003;20067;48.764;9.176;2022-09-09T07:06:17;7.00;7.00;2.75
26185;PMS7003;20067;48.764;9.176;2022-09-09T07:08:52;9.50;7.00;3.00
26185;PMS7003;20067;48.764;9.176;2022-09-09T07:11:23;6.00;6.00;2.00
26185;PMS7003;20067;48.764;9.176;2022-09-09T07:13:51;6.25;6.25;2.50
26185;PMS7003;20067;48.764;9.176;2022-09-09T07:16:18;5.00;5.00;1.75
26185;PMS7003;20067;48.764;9.176;2022-09-09T07:18:48;6.00;6.00;2.00
26185;PMS7003;20067;48.764;9.176;2022-09-09T07:21:15;6.00;6.00;2.00
26185;PMS7003;20067;48.764;9.176;2022-09-09T07:23:41;5.75;5.00;2.00
26185;PMS7003;20067;48.764;9.176;2022-09-09T07:26:17;6.75;5.50;1.75
26185;PMS7003;20067;48.764;9.176;2022-09-09T07:28:47;6.00;6.00;2.00
26185;PMS7003;20067;48.764;9.176;2022-09-09T07:33:42;8.00;6.50;2.00
26185;PMS7003;20067;48.764;9.176;2022-09-09T07:36:16;7.00;6.00;3.00
26185;PMS7003;20067;48.764;9.176;2022-09-09T07:38:52;6.00;5.25;1.50
26185;PMS7003;20067;48.764;9.176;2022-09-09T07:41:33;5.25;5.00;1.75
26185;PMS7003;20067;48.764;9.176;2022-09-09T07:44:11;7.00;6.00;2.00
26185;PMS7003;20067;48.764;9.176;2022-09-09T07:46:39;5.25;5.00;2.00
26185;PMS7003;20067;48.764;9.176;2022-09-09T07:49:07;9.00;7.00;3.00
26185;PMS7003;20067;48.764;9.176;2022-09-09T07:51:35;6.25;5.75;2.00
26185;PMS7003;20067;48.764;9.176;2022-09-09T07:54:13;4.00;4.00;1.00
26185;PMS7003;20067;48.764;9.176;2022-09-09T07:56:40;6.00;6.00;2.00
26185;PMS7003;20067;48.764;9.176;2022-09-09T07:59:07;4.25;4.00;2.00
26185;PMS7003;20067;48.764;9.176;2022-09-09T08:04:11;9.50;5.25;2.00
26185;PMS7003;20067;48.764;9.176;2022-09-09T08:06:46;3.00;3.00;1.00
26185;PMS7003;20067;48.764;9.176;2022-09-09T08:09:17;4.00;4.00;1.00
26185;PMS7003;20067;48.764;9.176;2022-09-09T08:11:44;4.00;4.00;1.00
26185;PMS7003;20067;48.764;9.176;2022-09-09T08:14:10;4.00;4.00;1.00
26185;PMS7003;20067;48.764;9.176;2022-09-09T08:16:39;6.50;5.00;1.75
26185;PMS7003;20067;48.764;9.176;2022-09-09T08:19:07;4.00;4.00;1.00
26185;PMS7003;20067;48.764;9.176;2022-09-09T08:21:33;5.00;5.00;1.25
26185;PMS7003;20067;48.764;9.176;2022-09-09T08:24:02;4.00;4.00;1.25
26185;PMS7003;20067;48.764;9.176;2022-09-09T08:26:34;3.50;3.50;1.00
26185;PMS7003;20067;48.764;9.176;2022-09-09T08:29:02;3.00;3.00;1.00
26185;PMS7003;20067;48.764;9.176;2022-09-09T08:31:30;4.00;4.00;1.00
26185;PMS7003;20067;48.764;9.176;2022-09-09T08:33:59;4.00;4.00;1.00
26185;PMS7003;20067;48.764;9.176;2022-09-09T08:36:28;3.25;3.25;1.00
26185;PMS7003;20067;48.764;9.176;2022-09-09T08:38:55;4.25;4.25;1.25
26185;PMS7003;20067;48.764;9.176;2022-09-09T08:44:34;3.75;3.25;1.00
26185;PMS7003;20067;48.764;9.176;2022-09-09T08:48:09;4.25;3.00;1.00
26185;PMS7003;20067;48.764;9.176;2022-09-09T08:50:45;3.25;3.25;1.00
26185;PMS7003;20067;48.764;9.176;2022-09-09T08:53:20;5.75;4.25;1.00
26185;PMS7003;20067;48.764;9.176;2022-09-09T08:58:25;3.00;3.00;0.75
26185;PMS7003;20067;48.764;9.176;2022-09-09T09:09:24;3.00;3.00;0.25
26185;PMS7003;20067;48.764;9.176;2022-09-09T09:11:59;5.00;3.50;1.00
26185;PMS7003;20067;48.764;9.176;2022-09-09T09:14:31;3.00;3.00;0.75
26185;PMS7003;20067;48.764;9.176;2022-09-09T09:17:18;8.00;8.00;3.00
26185;PMS7003;20067;48.764;9.176;2022-09-09T09:19:47;4.00;4.00;1.00
26185;PMS7003;20067;48.764;9.176;2022-09-09T09:22:16;5.00;3.00;1.00
26185;PMS7003;20067;48.764;9.176;2022-09-09T09:31:04;4.00;4.00;1.00
26185;PMS7003;20067;48.764;9.176;2022-09-09T09:33:34;4.25;4.00;1.50
26185;PMS7003;20067;48.764;9.176;2022-09-09T09:36:11;4.00;3.00;1.00
26185;PMS7003;20067;48.764;9.176;2022-09-09T09:38:40;6.00;5.25;2.00
26185;PMS7003;20067;48.764;9.176;2022-09-09T09:41:28;4.00;4.00;1.00
26185;PMS7003;20067;48.764;9.176;2022-09-09T09:43:55;2.75;2.75;0.00
26185;PMS7003;20067;48.764;9.176;2022-09-09T09:46:21;3.00;3.00;0.00
26185;PMS7003;20067;48.764;9.176;2022-09-09T09:49:04;3.00;2.50;0.00
26185;PMS7003;20067;48.764;9.176;2022-09-09T09:51:34;2.50;2.50;0.00
26185;PMS7003;20067;48.764;9.176;2022-09-09T09:54:43;3.00;3.00;0.00
26185;PMS7003;20067;48.764;9.176;2022-09-09T09:56:53;3.00;3.00;0.50
26185;PMS7003;20067;48.764;9.176;2022-09-09T10:01:54;3.00;2.75;0.00
26185;PMS7003;20067;48.764;9.176;2022-09-09T10:04:31;3.00;3.00;0.00
26185;PMS7003;20067;48.764;9.176;2022-09-09T10:06:58;2.00;2.00;0.00
26185;PMS7003;20067;48.764;9.176;2022-09-09T10:09:34;3.00;2.50;0.00
26185;PMS7003;20067;48.764;9.176;2022-09-09T10:20:15;4.00;4.00;1.00
26185;PMS7003;20067;48.764;9.176;2022-09-09T10:22:52;4.00;4.00;2.00
26185;PMS7003;20067;48.764;9.176;2022-09-09T10:28:39;3.00;3.00;1.00
26185;PMS7003;20067;48.764;9.176;2022-09-09T10:31:26;4.00;3.00;1.00
26185;PMS7003;20067;48.764;9.176;2022-09-09T10:36:44;5.00;4.25;2.00
26185;PMS7003;20067;48.764;9.176;2022-09-09T10:41:54;4.00;4.00;1.00
26185;PMS7003;20067;48.764;9.176;2022-09-09T10:47:33;4.00;4.00;1.00
26185;PMS7003;20067;48.764;9.176;2022-09-09T10:55:40;5.25;3.00;1.00
26185;PMS7003;20067;48.764;9.176;2022-09-09T10:58:10;4.00;4.00;2.00
26185;PMS7003;20067;48.764;9.176;2022-09-09T11:00:46;6.25;6.00;2.00
26185;PMS7003;20067;48.764;9.176;2022-09-09T11:03:27;5.00;5.00;2.00
26185;PMS7003;20067;48.764;9.176;2022-09-09T11:08:28;4.00;4.00;2.00
26185;PMS7003;20067;48.764;9.176;2022-09-09T11:14:10;6.75;6.00;2.50
26185;PMS7003;20067;48.764;9.176;2022-09-09T11:19:35;4.00;4.00;1.25
26185;PMS7003;20067;48.764;9.176;2022-09-09T11:25:01;7.25;4.75;2.00
26185;PMS7003;20067;48.764;9.176;2022-09-09T11:27:37;4.00;4.00;2.00
26185;PMS7003;20067;48.764;9.176;2022-09-09T11:41:12;5.00;4.00;1.00
26185;PMS7003;20067;48.764;9.176;2022-09-09T11:43:43;3.25;3.00;1.00
26185;PMS7003;20067;48.764;9.176;2022-09-09T11:46:09;3.25;3.25;1.00
26185;PMS7003;20067;48.764;9.176;2022-09-09T11:48:37;3.50;3.50;1.00
26185;PMS7003;20067;48.764;9.176;2022-09-09T11:54:25;4.00;3.00;1.00
26185;PMS7003;20067;48.764;9.176;2022-09-09T11:56:54;3.00;3.00;1.00
26185;PMS7003;20067;48.764;9.176;2022-09-09T12:02:26;2.25;2.25;0.25
26185;PMS7003;20067;48.764;9.176;2022-09-09T12:05:29;2.00;2.00;0.00
26185;PMS7003;20067;48.764;9.176;2022-09-09T12:07:52;3.00;3.00;0.00
26185;PMS7003;20067;48.764;9.176;2022-09-09T12:10:25;2.50;2.50;0.50
26185;PMS7003;20067;48.764;9.176;2022-09-09T12:12:54;3.00;3.00;0.00
26185;PMS7003;20067;48.764;9.176;2022-09-09T12:15:22;2.25;2.25;0.00
26185;PMS7003;20067;48.764;9.176;2022-09-09T12:17:54;4.00;3.00;1.00
26185;PMS7003;20067;48.764;9.176;2022-09-09T12:24:02;2.00;2.00;0.00
26185;PMS7003;20067;48.764;9.176;2022-09-09T12:26:14;3.00;3.00;0.00
26185;PMS7003;20067;48.764;9.176;2022-09-09T12:34:19;2.00;2.00;0.00
26185;PMS7003;20067;48.764;9.176;2022-09-09T12:36:51;3.00;3.00;0.50
26185;PMS7003;20067;48.764;9.176;2022-09-09T12:39:28;2.00;2.00;0.00
26185;PMS7003;20067;48.764;9.176;2022-09-09T12:41:58;2.00;2.00;0.00
26185;PMS7003;20067;48.764;9.176;2022-09-09T12:44:25;2.25;2.25;0.00
26185;PMS7003;20067;48.764;9.176;2022-09-09T12:46:53;3.75;3.75;1.00
26185;PMS7003;20067;48.764;9.176;2022-09-09T12:52:13;3.00;3.00;0.00
26185;PMS7003;20067;48.764;9.176;2022-09-09T12:55:01;2.75;2.75;0.25
26185;PMS7003;20067;48.764;9.176;2022-09-09T12:57:31;3.00;3.00;0.75
26185;PMS7003;20067;48.764;9.176;2022-09-09T13:00:17;3.00;3.00;0.25
26185;PMS7003;20067;48.764;9.176;2022-09-09T13:03:31;3.00;3.00;1.00
26185;PMS7003;20067;48.764;9.176;2022-09-09T13:05:42;3.00;2.50;0.25
26185;PMS7003;20067;48.764;9.176;2022-09-09T13:08:09;3.00;3.00;1.00
26185;PMS7003;20067;48.764;9.176;2022-09-09T13:10:58;3.00;3.00;0.50
26185;PMS7003;20067;48.764;9.176;2022-09-09T13:13:27;2.00;2.00;0.00
26185;PMS7003;20067;48.764;9.176;2022-09-09T13:16:00;3.50;3.50;0.75
26185;PMS7003;20067;48.764;9.176;2022-09-09T13:18:28;3.00;3.00;1.00
26185;PMS7003;20067;48.764;9.176;2022-09-09T13:20:58;3.00;3.00;0.00
26185;PMS7003;20067;48.764;9.176;2022-09-09T13:23:26;3.00;3.00;0.00
26185;PMS7003;20067;48.764;9.176;2022-09-09T13:25:58;3.00;3.00;0.50
26185;PMS7003;20067;48.764;9.176;2022-09-09T13:28:27;2.50;2.50;0.00
26185;PMS7003;20067;48.764;9.176;2022-09-09T13:30:55;2.75;2.75;0.00
26185;PMS7003;20067;48.764;9.176;2022-09-09T13:33:28;2.25;2.25;0.00
26185;PMS7003;20067;48.764;9.176;2022-09-09T13:36:08;3.00;3.00;0.25
26185;PMS7003;20067;48.764;9.176;2022-09-09T13:38:40;3.00;2.00;0.00
26185;PMS7003;20067;48.764;9.176;2022-09-09T13:41:24;3.00;3.00;0.00
26185;PMS7003;20067;48.764;9.176;2022-09-09T13:44:01;2.50;2.50;0.25
26185;PMS7003;20067;48.764;9.176;2022-09-09T13:49:16;3.00;3.00;1.00
26185;PMS7003;20067;48.764;9.176;2022-09-09T13:51:46;3.75;3.00;0.50
26185;PMS7003;20067;48.764;9.176;2022-09-09T13:54:15;3.00;3.00;0.50
26185;PMS7003;20067;48.764;9.176;2022-09-09T13:56:43;2.50;2.50;0.00
26185;PMS7003;20067;48.764;9.176;2022-09-09T13:59:10;2.00;2.00;0.00
26185;PMS7003;20067;48.764;9.176;2022-09-09T14:01:37;2.75;2.25;0.00
26185;PMS7003;20067;48.764;9.176;2022-09-09T14:04:03;4.00;3.00;1.00
26185;PMS7003;20067;48.764;9.176;2022-09-09T14:06:31;3.00;2.25;0.00
26185;PMS7003;20067;48.764;9.176;2022-09-09T14:08:57;2.00;2.00;0.00
26185;PMS7003;20067;48.764;9.176;2022-09-09T14:11:23;2.00;2.00;0.00
26185;PMS7003;20067;48.764;9.176;2022-09-09T14:13:49;2.25;2.00;0.00
26185;PMS7003;20067;48.764;9.176;2022-09-09T14:16:18;2.50;2.50;0.00
26185;PMS7003;20067;48.764;9.176;2022-09-09T14:18:44;3.00;3.00;0.00
26185;PMS7003;20067;48.764;9.176;2022-09-09T14:21:10;2.00;2.00;0.00
26185;PMS7003;20067;48.764;9.176;2022-09-09T14:23:37;4.00;2.50;0.00
26185;PMS7003;20067;48.764;9.176;2022-09-09T14:26:06;2.00;2.00;0.00
26185;PMS7003;20067;48.764;9.176;2022-09-09T14:28:33;2.00;2.00;0.00
26185;PMS7003;20067;48.764;9.176;2022-09-09T14:31:00;3.00;3.00;0.00
26185;PMS7003;20067;48.764;9.176;2022-09-09T14:33:27;2.00;2.00;0.00
26185;PMS7003;20067;48.764;9.176;2022-09-09T14:35:59;2.00;2.00;0.00
26185;PMS7003;20067;48.764;9.176;2022-09-09T14:38:30;2.00;2.00;0.00
26185;PMS7003;20067;48.764;9.176;2022-09-09T14:40:58;2.50;2.25;0.00
26185;PMS7003;20067;48.764;9.176;2022-09-09T14:43:24;2.00;2.00;0.00
26185;PMS7003;20067;48.764;9.176;2022-09-09T14:45:51;2.50;2.25;0.00
26185;PMS7003;20067;48.764;9.176;2022-09-09T14:48:17;2.00;2.00;0.00
26185;PMS7003;20067;48.764;9.176;2022-09-09T14:50:44;3.25;2.00;0.00
26185;PMS7003;20067;48.764;9.176;2022-09-09T14:53:09;3.00;3.00;0.00
26185;PMS7003;20067;48.764;9.176;2022-09-09T14:55:35;3.00;3.00;0.50
26185;PMS7003;20067;48.764;9.176;2022-09-09T14:58:01;2.50;2.50;0.00
26185;PMS7003;20067;48.764;9.176;2022-09-09T15:00:27;2.00;2.00;0.00
26185;PMS7003;20067;48.764;9.176;2022-09-09T15:02:54;2.00;2.00;0.00
26185;PMS7003;20067;48.764;9.176;2022-09-09T15:05:20;2.00;2.00;0.00
26185;PMS7003;20067;48.764;9.176;2022-09-09T15:07:46;2.25;2.25;0.00
26185;PMS7003;20067;48.764;9.176;2022-09-09T15:10:13;2.00;2.00;0.00
26185;PMS7003;20067;48.764;9.176;2022-09-09T15:12:39;2.00;2.00;0.00
26185;PMS7003;20067;48.764;9.176;2022-09-09T15:15:06;3.75;3.00;0.00
26185;PMS7003;20067;48.764;9.176;2022-09-09T15:17:33;3.00;3.00;0.00
26185;PMS7003;20067;48.764;9.176;2022-09-09T15:19:59;4.75;4.75;1.00
26185;PMS7003;20067;48.764;9.176;2022-09-09T15:22:24;8.50;6.75;3.25
26185;PMS7003;20067;48.764;9.176;2022-09-09T15:24:50;6.75;5.75;2.00
26185;PMS7003;20067;48.764;9.176;2022-09-09T15:27:16;5.00;5.00;2.00
26185;PMS7003;20067;48.764;9.176;2022-09-09T15:29:42;5.00;3.00;1.00
26185;PMS7003;20067;48.764;9.176;2022-09-09T15:32:08;2.00;2.00;0.00
26185;PMS7003;20067;48.764;9.176;2022-09-09T15:34:34;3.00;3.00;0.00
26185;PMS7003;20067;48.764;9.176;2022-09-09T15:36:59;2.00;2.00;0.00
26185;PMS7003;20067;48.764;9.176;2022-09-09T15:39:25;3.00;3.00;0.50
26185;PMS7003;20067;48.764;9.176;2022-09-09T15:41:51;3.25;3.25;1.00
26185;PMS7003;20067;48.764;9.176;2022-09-09T15:44:17;3.00;3.00;0.00
26185;PMS7003;20067;48.764;9.176;2022-09-09T15:46:50;4.00;3.00;1.00
26185;PMS7003;20067;48.764;9.176;2022-09-09T15:49:25;5.00;5.00;2.00
26185;PMS7003;20067;48.764;9.176;2022-09-09T15:51:52;4.00;4.00;1.00
26185;PMS7003;20067;48.764;9.176;2022-09-09T15:54:18;3.50;3.00;0.00
26185;PMS7003;20067;48.764;9.176;2022-09-09T15:56:47;4.50;4.00;2.00
26185;PMS7003;20067;48.764;9.176;2022-09-09T15:59:22;3.00;3.00;0.75
26185;PMS7003;20067;48.764;9.176;2022-09-09T16:01:49;3.00;3.00;0.50
26185;PMS7003;20067;48.764;9.176;2022-09-09T16:04:16;2.75;2.75;0.00
26185;PMS7003;20067;48.764;9.176;2022-09-09T16:06:52;5.25;5.25;2.00
26185;PMS7003;20067;48.764;9.176;2022-09-09T16:09:19;3.00;3.00;0.00
26185;PMS7003;20067;48.764;9.176;2022-09-09T16:11:48;2.50;2.00;0.00
26185;PMS7003;20067;48.764;9.176;2022-09-09T16:14:14;3.00;3.00;1.00
26185;PMS7003;20067;48.764;9.176;2022-09-09T16:16:41;2.00;2.00;0.00
26185;PMS7003;20067;48.764;9.176;2022-09-09T16:19:08;2.00;2.00;0.00
26185;PMS7003;20067;48.764;9.176;2022-09-09T16:21:41;3.00;3.00;1.00
26185;PMS7003;20067;48.764;9.176;2022-09-09T16:24:10;3.00;3.00;1.00
26185;PMS7003;20067;48.764;9.176;2022-09-09T16:26:38;4.00;3.00;1.00
26185;PMS7003;20067;48.764;9.176;2022-09-09T16:29:06;6.00;3.75;1.00
26185;PMS7003;20067;48.764;9.176;2022-09-09T16:31:32;4.00;3.25;1.00
26185;PMS7003;20067;48.764;9.176;2022-09-09T16:33:58;2.00;2.00;0.00
26185;PMS7003;20067;48.764;9.176;2022-09-09T16:36:25;4.00;2.75;0.75
26185;PMS7003;20067;48.764;9.176;2022-09-09T16:38:58;3.00;3.00;0.25
26185;PMS7003;20067;48.764;9.176;2022-09-09T16:41:26;3.00;3.00;1.00
26185;PMS7003;20067;48.764;9.176;2022-09-09T16:43:53;2.00;2.00;0.00
26185;PMS7003;20067;48.764;9.176;2022-09-09T16:46:20;2.00;2.00;0.00
26185;PMS7003;20067;48.764;9.176;2022-09-09T16:48:46;2.25;2.00;0.00
26185;PMS7003;20067;48.764;9.176;2022-09-09T16:53:44;2.00;2.00;0.00
26185;PMS7003;20067;48.764;9.176;2022-09-09T16:56:11;3.00;2.00;0.00
26185;PMS7003;20067;48.764;9.176;2022-09-09T16:58:39;2.00;2.00;0.00
26185;PMS7003;20067;48.764;9.176;2022-09-09T17:01:05;2.75;2.75;0.00
26185;PMS7003;20067;48.764;9.176;2022-09-09T17:03:31;2.00;2.00;0.00
26185;PMS7003;20067;48.764;9.176;2022-09-09T17:05:57;2.00;2.00;0.00
26185;PMS7003;20067;48.764;9.176;2022-09-09T17:08:27;2.00;2.00;0.00
26185;PMS7003;20067;48.764;9.176;2022-09-09T17:10:56;2.00;2.00;0.00
26185;PMS7003;20067;48.764;9.176;2022-09-09T17:13:22;2.00;2.00;0.00
26185;PMS7003;20067;48.764;9.176;2022-09-09T17:15:50;3.00;2.00;0.00